Time;durP1;ratioP1;P1;durP2;ratioP2;P2;SDS_P1;SDS_P2;PMS_P1;PMS_P2;Temp;Humidity;BMP_temperature;BMP_pressure;BME280_temperature;BME280_humidity;BME280_pressure;Samples;Min_cycle;Max_cycle;Signal;HPM_P1;HPM_P2
2023/04/29 00:01:26;;;;;;;5.88;4.25;;;26.80;99.90;;;;;;5012871;28;20046;-48
2023/04/29 00:03:52;;;;;;;7.10;3.97;;;26.80;99.90;;;;;;5012743;28;20029;-48
2023/04/29 00:06:18;;;;;;;10.38;4.75;;;26.80;99.90;;;;;;5012587;28;20472;-48
2023/04/29 00:08:43;;;;;;;8.48;4.32;;;26.80;99.90;;;;;;5012399;28;20033;-47
2023/04/29 00:11:10;;;;;;;6.13;3.85;;;26.70;99.90;;;;;;5012483;28;20100;-49
2023/04/29 00:13:38;;;;;;;8.20;4.03;;;26.70;99.90;;;;;;5012404;28;20028;-47
2023/04/29 00:16:04;;;;;;;6.20;4.28;;;26.70;99.90;;;;;;5012406;28;20076;-48
2023/04/29 00:18:31;;;;;;;7.20;4.80;;;26.70;99.90;;;;;;5012493;28;20435;-48
2023/04/29 00:20:56;;;;;;;8.17;4.87;;;26.70;99.90;;;;;;5012388;28;20507;-48
2023/04/29 00:23:22;;;;;;;8.52;4.78;;;26.70;99.90;;;;;;5012513;28;20263;-47
2023/04/29 00:25:49;;;;;;;7.32;4.65;;;26.70;99.90;;;;;;5012279;28;20109;-47
2023/04/29 00:28:15;;;;;;;6.70;4.95;;;26.70;99.90;;;;;;5012120;28;20117;-48
2023/04/29 00:30:40;;;;;;;7.50;4.40;;;26.60;99.90;;;;;;5012310;28;20125;-47
2023/04/29 00:33:06;;;;;;;7.97;5.00;;;26.60;99.90;;;;;;5012180;28;20029;-48
2023/04/29 00:35:32;;;;;;;8.88;4.60;;;26.60;99.90;;;;;;5012067;28;20484;-47
2023/04/29 00:37:58;;;;;;;6.53;4.72;;;26.70;99.90;;;;;;5012100;28;20037;-47
2023/04/29 00:40:23;;;;;;;8.63;5.18;;;26.60;99.90;;;;;;5012318;28;20041;-47
2023/04/29 00:42:49;;;;;;;7.22;5.47;;;26.60;99.90;;;;;;5012117;28;20030;-48
2023/04/29 00:45:15;;;;;;;6.13;4.82;;;26.60;99.90;;;;;;5012332;28;20030;-47
2023/04/29 00:47:41;;;;;;;7.22;4.97;;;26.60;99.90;;;;;;5012162;28;20113;-47
2023/04/29 00:50:08;;;;;;;9.05;5.22;;;26.60;99.90;;;;;;5012090;28;20420;-46
2023/04/29 00:52:35;;;;;;;7.85;5.05;;;26.60;99.90;;;;;;5013680;28;20156;-47
2023/04/29 00:55:04;;;;;;;6.15;4.55;;;26.60;99.90;;;;;;5014634;28;20033;-47
2023/04/29 00:57:30;;;;;;;5.60;4.53;;;26.60;99.90;;;;;;5015867;28;20037;-47
2023/04/29 00:59:59;;;;;;;5.30;4.43;;;26.60;99.90;;;;;;5016279;28;20030;-47
2023/04/29 01:02:25;;;;;;;6.75;4.78;;;26.60;99.90;;;;;;5015878;28;20492;-47
2023/04/29 01:04:52;;;;;;;6.90;4.93;;;26.60;99.90;;;;;;5015789;28;20057;-48
2023/04/29 01:07:24;;;;;;;6.28;4.20;;;26.60;99.90;;;;;;5015528;28;20116;-47
2023/04/29 01:10:13;;;;;;;6.10;4.40;;;26.60;99.90;;;;;;5015519;28;20030;-47
2023/04/29 01:12:47;;;;;;;6.93;4.97;;;26.60;99.90;;;;;;5015560;28;20014;-48
2023/04/29 01:16:05;;;;;;;6.78;4.57;;;26.60;99.90;;;;;;5015478;28;20036;-47
2023/04/29 01:18:40;;;;;;;6.50;4.55;;;26.60;99.90;;;;;;5013065;28;20029;-47
2023/04/29 01:21:05;;;;;;;6.35;5.03;;;26.60;99.90;;;;;;5015475;28;20488;-48
2023/04/29 01:23:31;;;;;;;8.23;4.53;;;26.60;99.90;;;;;;5015416;28;20110;-48
2023/04/29 01:25:57;;;;;;;6.05;3.75;;;26.60;99.90;;;;;;5014174;28;20117;-47
2023/04/29 01:28:29;;;;;;;6.50;4.35;;;26.60;99.90;;;;;;5015371;28;20034;-46
2023/04/29 01:31:00;;;;;;;6.30;4.53;;;26.60;99.90;;;;;;5015565;28;20032;-47
2023/04/29 01:33:49;;;;;;;5.72;4.05;;;26.60;99.90;;;;;;5015339;28;20076;-46
2023/04/29 01:36:18;;;;;;;6.57;4.30;;;26.60;99.90;;;;;;5015151;28;20029;-47
2023/04/29 01:39:07;;;;;;;5.57;3.95;;;26.50;99.90;;;;;;5015039;28;20097;-47
2023/04/29 01:41:51;;;;;;;5.88;4.40;;;26.60;99.90;;;;;;5013870;28;20030;-47
2023/04/29 01:44:20;;;;;;;4.97;3.80;;;26.50;99.90;;;;;;5013681;28;20542;-47
2023/04/29 01:46:50;;;;;;;5.22;3.90;;;26.50;99.90;;;;;;5021671;28;20112;-46
2023/04/29 01:49:20;;;;;;;5.72;4.22;;;26.50;99.90;;;;;;5022861;28;20117;-46
2023/04/29 01:51:45;;;;;;;5.07;4.05;;;26.60;99.90;;;;;;5013476;28;20014;-46
2023/04/29 01:54:11;;;;;;;4.68;4.18;;;26.60;99.90;;;;;;5013676;28;20403;-46
2023/04/29 01:56:37;;;;;;;4.85;3.85;;;26.60;99.90;;;;;;5012548;28;20041;-47
2023/04/29 01:59:07;;;;;;;7.45;4.63;;;26.60;99.90;;;;;;5013763;28;20036;-47
2023/04/29 02:01:43;;;;;;;5.20;4.18;;;26.60;99.90;;;;;;5012484;28;20070;-47
2023/04/29 02:04:09;;;;;;;5.35;4.35;;;26.50;99.90;;;;;;5011460;28;20073;-48
2023/04/29 02:06:35;;;;;;;6.00;4.47;;;26.50;99.90;;;;;;5013355;28;20036;-48
2023/04/29 02:09:00;;;;;;;4.80;3.88;;;26.60;99.90;;;;;;5013468;28;20104;-47
2023/04/29 02:11:26;;;;;;;6.50;4.18;;;26.50;99.90;;;;;;5012707;28;20037;-47
2023/04/29 02:13:53;;;;;;;6.18;4.78;;;26.50;99.90;;;;;;5013515;28;20034;-47
2023/04/29 02:16:19;;;;;;;5.30;4.13;;;26.50;99.90;;;;;;5011792;28;20049;-47
2023/04/29 02:18:45;;;;;;;6.03;3.75;;;26.50;99.90;;;;;;5013132;28;20072;-47
2023/04/29 02:21:11;;;;;;;7.88;5.38;;;26.50;99.90;;;;;;5014310;28;20105;-48
2023/04/29 02:23:37;;;;;;;6.05;4.30;;;26.50;99.90;;;;;;5013053;28;20502;-48
2023/04/29 02:26:08;;;;;;;6.50;4.28;;;26.50;99.90;;;;;;5014216;28;20072;-47
2023/04/29 02:28:34;;;;;;;4.95;3.85;;;26.50;99.90;;;;;;5014116;28;20033;-46
2023/04/29 02:31:00;;;;;;;7.47;4.35;;;26.50;99.90;;;;;;5014204;28;20432;-47
2023/04/29 02:33:25;;;;;;;5.50;4.15;;;26.50;99.90;;;;;;5012962;28;20109;-47
2023/04/29 02:35:51;;;;;;;5.57;3.78;;;26.50;99.90;;;;;;5014155;28;20049;-48
2023/04/29 02:38:17;;;;;;;7.65;4.43;;;26.50;99.90;;;;;;5013943;28;20026;-47
2023/04/29 02:40:44;;;;;;;5.47;3.83;;;26.50;99.90;;;;;;5013932;28;20068;-47
2023/04/29 02:43:10;;;;;;;6.23;4.73;;;26.50;99.90;;;;;;5013995;28;20026;-46
2023/04/29 02:45:37;;;;;;;7.43;4.23;;;26.50;99.90;;;;;;5013460;28;20026;-46
2023/04/29 02:48:04;;;;;;;6.25;4.65;;;26.50;99.90;;;;;;5013791;28;20378;-47
2023/04/29 02:50:30;;;;;;;5.37;3.90;;;26.50;99.90;;;;;;5013977;28;20033;-46
2023/04/29 02:52:56;;;;;;;6.53;4.88;;;26.50;99.90;;;;;;5013878;28;20030;-47
2023/04/29 02:55:22;;;;;;;10.13;5.43;;;26.40;99.90;;;;;;5013828;28;20395;-46
2023/04/29 02:57:48;;;;;;;7.38;5.53;;;26.40;99.90;;;;;;5013555;28;20041;-47
2023/04/29 03:00:14;;;;;;;6.47;4.85;;;26.40;99.90;;;;;;5037780;22;20057;-60
2023/04/29 03:02:40;;;;;;;7.43;5.05;;;26.40;99.90;;;;;;5032246;28;20108;-61
2023/04/29 03:05:06;;;;;;;8.55;5.35;;;26.40;99.90;;;;;;5033335;28;20072;-61
2023/04/29 03:07:31;;;;;;;6.88;4.85;;;26.40;99.90;;;;;;5033195;28;20125;-62
2023/04/29 03:09:57;;;;;;;7.78;5.45;;;26.40;99.90;;;;;;5032072;28;20032;-61
2023/04/29 03:12:23;;;;;;;12.93;5.32;;;26.40;99.90;;;;;;5033229;28;20080;-61
2023/04/29 03:14:49;;;;;;;6.85;5.45;;;26.40;99.90;;;;;;5032724;28;20493;-61
2023/04/29 03:17:15;;;;;;;8.70;5.28;;;26.40;99.90;;;;;;5032365;28;20490;-61
2023/04/29 03:19:41;;;;;;;6.82;5.03;;;26.40;99.90;;;;;;5033055;28;20021;-61
2023/04/29 03:22:10;;;;;;;6.05;5.10;;;26.40;99.90;;;;;;5033001;28;20030;-61
2023/04/29 03:24:37;;;;;;;7.15;5.60;;;26.40;99.90;;;;;;5032922;28;20025;-62
2023/04/29 03:27:03;;;;;;;9.73;5.97;;;26.30;99.90;;;;;;5032840;28;20065;-61
2023/04/29 03:29:30;;;;;;;7.70;5.75;;;26.30;99.90;;;;;;5033077;28;20666;-60
2023/04/29 03:31:56;;;;;;;8.00;5.65;;;26.30;99.90;;;;;;5032912;28;20018;-60
2023/04/29 03:34:22;;;;;;;6.90;5.10;;;26.30;99.90;;;;;;5032653;28;20082;-60
2023/04/29 03:36:48;;;;;;;7.28;5.50;;;26.30;99.90;;;;;;5032680;28;20033;-60
2023/04/29 03:39:13;;;;;;;8.43;5.57;;;26.30;99.90;;;;;;5032603;28;20021;-60
2023/04/29 03:41:39;;;;;;;6.40;5.03;;;26.30;99.90;;;;;;5032504;28;20403;-60
2023/04/29 03:44:05;;;;;;;8.75;5.93;;;26.30;99.90;;;;;;5032512;28;20475;-60
2023/04/29 03:46:31;;;;;;;8.38;6.28;;;26.30;99.90;;;;;;5032841;28;20041;-60
2023/04/29 03:48:57;;;;;;;7.25;5.60;;;26.30;99.90;;;;;;5031463;28;20442;-59
2023/04/29 03:51:23;;;;;;;9.25;6.18;;;26.30;99.90;;;;;;5032402;28;20052;-59
2023/04/29 03:53:50;;;;;;;8.43;5.78;;;26.30;99.90;;;;;;5032381;28;20030;-60
2023/04/29 03:56:16;;;;;;;7.07;5.15;;;26.30;99.90;;;;;;5032362;28;20033;-59
2023/04/29 03:58:42;;;;;;;8.07;5.70;;;26.30;99.90;;;;;;5031046;28;20478;-59
2023/04/29 04:01:07;;;;;;;9.27;5.90;;;26.30;99.90;;;;;;5049288;22;20145;-48
2023/04/29 04:03:33;;;;;;;8.25;5.93;;;26.30;99.90;;;;;;5032593;28;20037;-48
2023/04/29 04:05:59;;;;;;;8.45;5.55;;;26.30;99.90;;;;;;5032366;28;20026;-47
2023/04/29 04:08:25;;;;;;;7.50;5.70;;;26.30;99.90;;;;;;5032138;28;20091;-48
2023/04/29 04:10:50;;;;;;;8.23;5.25;;;26.30;99.90;;;;;;5032261;28;20071;-47
2023/04/29 04:13:16;;;;;;;6.93;5.35;;;26.30;99.90;;;;;;5032208;28;20029;-47
2023/04/29 04:15:47;;;;;;;8.77;5.70;;;26.30;99.90;;;;;;5032217;28;20018;-47
2023/04/29 04:18:13;;;;;;;7.72;6.07;;;26.30;99.90;;;;;;5030959;28;20037;-47
2023/04/29 04:20:39;;;;;;;8.25;5.82;;;26.30;99.90;;;;;;5032204;28;20457;-47
2023/04/29 04:23:05;;;;;;;8.35;5.72;;;26.20;99.90;;;;;;5032249;28;20032;-47
2023/04/29 04:25:31;;;;;;;6.95;5.65;;;26.20;99.90;;;;;;5032307;28;20156;-48
2023/04/29 04:27:56;;;;;;;9.00;5.82;;;26.20;99.90;;;;;;5034456;28;20120;-48
2023/04/29 04:30:23;;;;;;;7.90;5.72;;;26.20;99.90;;;;;;5036046;28;20386;-48
2023/04/29 04:32:48;;;;;;;7.10;5.15;;;26.20;99.90;;;;;;5036082;28;20032;-48
2023/04/29 04:35:14;;;;;;;7.55;5.60;;;26.20;99.90;;;;;;5036086;28;20026;-47
2023/04/29 04:37:40;;;;;;;8.73;5.47;;;26.20;99.90;;;;;;5035920;28;20084;-47
2023/04/29 04:40:07;;;;;;;6.55;5.38;;;26.20;99.90;;;;;;5036035;28;20022;-47
2023/04/29 04:42:33;;;;;;;7.00;5.00;;;26.20;99.90;;;;;;5036314;28;20025;-48
2023/04/29 04:44:58;;;;;;;6.72;4.85;;;26.20;99.90;;;;;;5035924;28;20079;-47
2023/04/29 04:47:24;;;;;;;7.15;5.18;;;26.20;99.90;;;;;;5034601;28;20055;-47
2023/04/29 04:49:51;;;;;;;7.53;5.00;;;26.20;99.90;;;;;;5035786;28;20453;-47
2023/04/29 04:52:22;;;;;;;7.22;5.03;;;26.20;99.90;;;;;;5034988;28;20028;-47
2023/04/29 04:54:48;;;;;;;6.88;5.55;;;26.20;99.90;;;;;;5033231;28;20022;-47
2023/04/29 04:57:14;;;;;;;7.47;4.82;;;26.20;99.90;;;;;;5048830;28;20390;-46
2023/04/29 04:59:39;;;;;;;7.20;4.68;;;26.20;99.90;;;;;;5053503;28;20029;-47
2023/04/29 05:02:07;;;;;;;8.65;5.38;;;26.20;99.90;;;;;;5037912;28;20030;-47
2023/04/29 05:04:33;;;;;;;7.00;5.53;;;26.10;99.90;;;;;;5034697;28;20025;-47
2023/04/29 05:06:58;;;;;;;7.93;5.20;;;26.20;99.90;;;;;;5035462;28;20059;-47
2023/04/29 05:09:25;;;;;;;6.45;4.82;;;26.20;99.90;;;;;;5035382;28;20064;-47
2023/04/29 05:11:51;;;;;;;7.22;4.38;;;26.20;99.90;;;;;;5035393;28;20426;-48
2023/04/29 05:14:17;;;;;;;6.75;4.38;;;26.20;99.90;;;;;;5035414;28;20080;-48
2023/04/29 05:16:45;;;;;;;6.22;3.88;;;26.10;99.90;;;;;;5035231;28;20497;-47
2023/04/29 05:19:11;;;;;;;5.25;4.30;;;26.10;99.90;;;;;;5035253;28;20025;-48
2023/04/29 05:21:37;;;;;;;6.07;4.10;;;26.10;99.90;;;;;;5035387;28;20021;-48
2023/04/29 05:24:03;;;;;;;6.10;3.60;;;26.10;99.90;;;;;;5035315;28;20025;-46
2023/04/29 05:26:29;;;;;;;7.65;3.65;;;26.10;99.90;;;;;;5035025;28;20048;-49
2023/04/29 05:28:54;;;;;;;6.95;3.97;;;26.10;99.90;;;;;;5034137;28;20030;-48
2023/04/29 05:31:20;;;;;;;7.00;4.22;;;26.10;99.90;;;;;;5035005;28;20033;-47
2023/04/29 05:33:46;;;;;;;7.82;3.85;;;26.10;99.90;;;;;;5035022;28;20025;-47
2023/04/29 05:36:12;;;;;;;13.15;5.18;;;26.10;99.90;;;;;;5034915;28;20031;-48
2023/04/29 05:38:37;;;;;;;8.20;4.65;;;26.10;99.90;;;;;;5033967;28;20032;-48
2023/04/29 05:41:03;;;;;;;8.05;4.22;;;26.10;99.90;;;;;;5034835;28;20101;-49
2023/04/29 05:43:29;;;;;;;10.15;3.92;;;26.10;99.90;;;;;;5049225;28;20036;-50
2023/04/29 05:45:55;;;;;;;10.85;4.03;;;26.10;99.90;;;;;;5022016;28;20420;-50
2023/04/29 05:48:21;;;;;;;9.07;4.22;;;26.00;99.90;;;;;;5024919;28;20039;-51
2023/04/29 05:50:47;;;;;;;7.40;3.42;;;26.00;99.90;;;;;;5024304;28;20014;-50
2023/04/29 05:53:13;;;;;;;6.75;3.65;;;26.10;99.90;;;;;;5025096;28;20417;-50
2023/04/29 05:55:39;;;;;;;11.82;4.80;;;26.10;99.90;;;;;;5033306;28;20109;-50
2023/04/29 05:58:05;;;;;;;8.07;3.75;;;26.00;99.90;;;;;;5034551;28;20038;-49
2023/04/29 06:00:31;;;;;;;12.32;3.50;;;26.10;99.90;;;;;;5034346;28;20098;-49
2023/04/29 06:02:56;;;;;;;6.22;3.85;;;26.00;99.90;;;;;;5034376;28;20029;-48
2023/04/29 06:05:24;;;;;;;8.73;3.30;;;26.10;99.90;;;;;;5034252;28;20088;-49
2023/04/29 06:07:50;;;;;;;8.00;3.90;;;26.10;99.90;;;;;;5034238;28;20057;-49
2023/04/29 06:10:16;;;;;;;10.35;4.30;;;26.10;99.90;;;;;;5049693;28;20132;-49
2023/04/29 06:12:42;;;;;;;6.15;3.35;;;26.10;99.90;;;;;;5034264;28;20040;-50
2023/04/29 06:15:08;;;;;;;9.30;3.22;;;26.10;99.90;;;;;;5034389;28;20091;-49
2023/04/29 06:17:34;;;;;;;7.22;3.20;;;26.00;99.90;;;;;;5034247;28;20441;-49
2023/04/29 06:20:00;;;;;;;7.25;3.00;;;26.10;99.90;;;;;;5034209;28;20109;-49
2023/04/29 06:22:26;;;;;;;7.63;3.50;;;26.00;99.90;;;;;;5033975;28;20025;-49
2023/04/29 06:24:52;;;;;;;8.20;3.53;;;26.00;99.90;;;;;;5049301;28;20132;-49
2023/04/29 06:27:18;;;;;;;9.15;3.60;;;26.00;99.90;;;;;;5033980;28;20458;-49
2023/04/29 06:29:43;;;;;;;6.20;3.45;;;26.00;99.90;;;;;;5034003;28;20478;-49
2023/04/29 06:32:09;;;;;;;7.60;3.75;;;26.10;99.90;;;;;;5034238;28;20017;-49
2023/04/29 06:34:35;;;;;;;6.05;3.65;;;26.10;99.90;;;;;;5033743;28;20026;-49
2023/04/29 06:37:01;;;;;;;6.43;4.07;;;26.00;99.90;;;;;;5033935;28;20380;-48
2023/04/29 06:39:27;;;;;;;9.18;3.67;;;26.00;99.90;;;;;;5033876;28;20026;-49
2023/04/29 06:41:53;;;;;;;6.32;3.60;;;26.00;99.90;;;;;;5033641;28;20057;-49
2023/04/29 06:44:19;;;;;;;4.50;3.65;;;26.10;99.90;;;;;;5033606;28;20025;-49
2023/04/29 06:46:44;;;;;;;6.60;3.70;;;26.00;99.90;;;;;;5033482;28;20485;-48
2023/04/29 06:49:10;;;;;;;5.90;3.35;;;26.10;99.90;;;;;;5033715;28;20057;-49
2023/04/29 06:51:36;;;;;;;6.38;3.25;;;26.00;99.90;;;;;;5033347;28;20041;-49
2023/04/29 06:54:03;;;;;;;5.03;3.20;;;26.10;99.90;;;;;;5048754;28;20037;-49
2023/04/29 06:56:28;;;;;;;5.85;2.83;;;26.10;99.90;;;;;;5033448;28;20096;-49
2023/04/29 06:58:54;;;;;;;4.18;2.85;;;26.00;99.90;;;;;;5033409;28;20117;-50
2023/04/29 07:01:20;;;;;;;7.35;3.00;;;26.00;99.90;;;;;;5033180;28;20470;-49
2023/04/29 07:03:46;;;;;;;5.97;3.13;;;26.10;99.90;;;;;;5033342;28;20112;-49
2023/04/29 07:06:12;;;;;;;5.47;2.80;;;26.10;99.90;;;;;;5033679;28;20516;-50
2023/04/29 07:08:38;;;;;;;4.43;3.15;;;26.00;99.90;;;;;;5033232;28;20041;-50
2023/04/29 07:11:04;;;;;;;4.60;2.55;;;26.10;99.90;;;;;;5033151;28;20029;-49
2023/04/29 07:13:30;;;;;;;5.68;3.03;;;26.00;99.90;;;;;;5048431;28;20094;-49
2023/04/29 07:15:55;;;;;;;5.57;3.05;;;26.10;99.90;;;;;;5033045;28;20455;-48
2023/04/29 07:18:21;;;;;;;5.70;3.20;;;26.10;99.90;;;;;;5033565;28;20513;-48
2023/04/29 07:20:48;;;;;;;6.00;3.00;;;26.10;99.90;;;;;;5032938;28;20096;-48
2023/04/29 07:23:14;;;;;;;5.63;2.95;;;26.10;99.90;;;;;;5031841;28;20029;-49
2023/04/29 07:25:40;;;;;;;6.47;3.45;;;26.10;99.90;;;;;;5048365;28;20040;-48
2023/04/29 07:28:07;;;;;;;4.85;2.97;;;26.10;99.90;;;;;;5032693;28;20438;-49
2023/04/29 07:30:33;;;;;;;;;;;26.10;99.90;;;;;;5033084;28;20491;-48
2023/04/29 07:32:59;;;;;;;6.20;2.70;;;26.10;99.90;;;;;;5032669;28;19912;-47
2023/04/29 07:35:25;;;;;;;4.30;2.50;;;26.10;99.90;;;;;;5032718;28;20021;-48
2023/04/29 07:37:51;;;;;;;3.95;2.97;;;26.10;99.90;;;;;;5029265;28;20025;-48
2023/04/29 07:40:17;;;;;;;4.07;3.17;;;26.10;99.90;;;;;;5030488;28;20055;-49
2023/04/29 07:42:43;;;;;;;6.03;3.00;;;26.00;99.90;;;;;;5032067;28;20087;-49
2023/04/29 07:45:09;;;;;;;4.72;2.88;;;26.10;99.90;;;;;;5030153;28;20021;-48
2023/04/29 07:47:35;;;;;;;4.13;2.95;;;26.10;99.90;;;;;;5031592;28;20446;-49
2023/04/29 07:50:01;;;;;;;5.25;2.90;;;26.10;99.90;;;;;;5031259;28;20025;-51
2023/04/29 07:52:27;;;;;;;4.97;2.53;;;26.10;99.90;;;;;;5030416;28;20037;-51
2023/04/29 07:54:55;;;;;;;4.70;2.95;;;26.10;99.90;;;;;;5029583;28;20029;-50
2023/04/29 07:57:20;;;;;;;;;;;26.10;99.90;;;;;;5030300;28;20064;-48
2023/04/29 07:59:49;;;;;;;6.85;3.20;;;26.10;99.90;;;;;;5025972;28;19961;-48
2023/04/29 08:02:15;;;;;;;3.90;2.90;;;26.10;99.90;;;;;;5010994;28;20129;-48
2023/04/29 08:04:41;;;;;;;4.72;2.85;;;26.10;99.90;;;;;;5016266;28;20021;-49
2023/04/29 08:07:08;;;;;;;5.05;2.75;;;26.10;99.90;;;;;;5030907;28;20506;-49
2023/04/29 08:09:33;;;;;;;5.30;2.97;;;26.10;99.90;;;;;;5031521;28;20065;-49
2023/04/29 08:12:00;;;;;;;5.18;3.20;;;26.10;99.90;;;;;;5030879;28;20049;-49
2023/04/29 08:14:26;;;;;;;4.55;2.70;;;26.10;99.90;;;;;;5031596;28;20027;-49
2023/04/29 08:16:53;;;;;;;3.95;2.83;;;26.10;99.90;;;;;;5030660;28;20029;-48
2023/04/29 08:19:20;;;;;;;7.20;3.63;;;26.10;99.90;;;;;;5031335;28;20198;-49
2023/04/29 08:21:46;;;;;;;4.47;2.53;;;26.10;99.90;;;;;;5029402;28;20029;-49
2023/04/29 08:24:12;;;;;;;4.78;2.30;;;26.10;99.90;;;;;;5029530;28;20467;-49
2023/04/29 08:26:41;;;;;;;5.13;3.00;;;26.10;99.90;;;;;;5029937;28;20036;-49
2023/04/29 08:29:07;;;;;;;5.85;2.70;;;26.10;99.90;;;;;;5030441;28;20140;-48
2023/04/29 08:31:33;;;;;;;5.03;3.10;;;26.10;99.90;;;;;;5032098;28;20399;-51
2023/04/29 08:34:00;;;;;;;3.88;2.45;;;26.10;99.90;;;;;;5031942;28;20017;-48
2023/04/29 08:36:27;;;;;;;5.17;2.53;;;26.20;99.90;;;;;;5031966;28;20033;-49
2023/04/29 08:38:53;;;;;;;5.18;2.83;;;26.10;99.90;;;;;;5031957;28;20026;-49
2023/04/29 08:41:19;;;;;;;6.03;3.08;;;26.10;99.90;;;;;;5031888;28;20029;-49
2023/04/29 08:43:45;;;;;;;4.35;2.72;;;26.10;99.90;;;;;;5031916;28;20029;-48
2023/04/29 08:46:12;;;;;;;3.78;2.67;;;26.20;99.90;;;;;;5031706;28;20049;-48
2023/04/29 08:48:41;;;;;;;5.97;2.83;;;26.20;99.90;;;;;;5031781;28;20029;-49
2023/04/29 08:51:07;;;;;;;3.78;2.47;;;26.20;99.90;;;;;;5030620;28;20018;-51
2023/04/29 08:53:33;;;;;;;5.72;2.65;;;26.20;99.90;;;;;;5031167;28;20549;-49
2023/04/29 08:56:11;;;;;;;4.47;2.90;;;26.10;99.90;;;;;;5031472;28;20021;-48
2023/04/29 08:58:39;;;;;;;7.25;2.78;;;26.10;99.90;;;;;;5031725;28;20041;-49
2023/04/29 09:01:08;;;;;;;3.60;2.47;;;26.10;99.90;;;;;;5031516;28;20045;-50
2023/04/29 09:03:40;;;;;;;6.38;3.42;;;26.20;99.90;;;;;;5031594;28;20479;-49
2023/04/29 09:06:06;;;;;;;8.50;3.42;;;26.10;99.90;;;;;;5031727;28;20017;-49
2023/04/29 09:08:32;;;;;;;7.90;3.00;;;26.20;99.90;;;;;;5031501;28;20048;-49
2023/04/29 09:10:59;;;;;;;4.80;3.22;;;26.20;99.90;;;;;;5031593;28;20025;-49
2023/04/29 09:13:26;;;;;;;9.23;3.90;;;26.20;99.90;;;;;;5033133;28;20017;-49
2023/04/29 09:15:53;;;;;;;5.90;3.25;;;26.20;99.90;;;;;;5035422;28;20028;-49
2023/04/29 09:18:44;;;;;;;6.70;3.35;;;26.20;99.90;;;;;;5034441;28;20376;-48
2023/04/29 09:21:18;;;;;;;5.28;3.22;;;26.20;99.90;;;;;;5035133;28;20036;-48
2023/04/29 09:23:44;;;;;;;6.90;3.03;;;26.20;99.90;;;;;;5035004;28;20025;-49
2023/04/29 09:26:10;;;;;;;6.40;3.20;;;26.20;99.90;;;;;;5035271;28;20037;-49
2023/04/29 09:28:36;;;;;;;5.18;3.00;;;26.20;99.90;;;;;;5035053;28;20491;-49
2023/04/29 09:31:07;;;;;;;6.30;3.13;;;26.20;99.90;;;;;;5035088;28;20017;-49
2023/04/29 09:33:52;;;;;;;4.90;3.20;;;26.20;99.90;;;;;;5034968;28;20057;-49
2023/04/29 09:36:38;;;;;;;8.27;3.42;;;26.20;99.90;;;;;;5035460;28;20371;-49
2023/04/29 09:39:18;;;;;;;8.10;3.20;;;26.20;99.90;;;;;;5034897;28;20045;-49
2023/04/29 09:41:53;;;;;;;9.60;3.30;;;26.20;99.90;;;;;;5034707;28;20375;-50
2023/04/29 09:44:21;;;;;;;5.68;3.03;;;26.30;99.90;;;;;;5034805;28;20029;-48
2023/04/29 09:47:04;;;;;;;7.63;4.03;;;26.30;99.90;;;;;;5034840;28;20021;-48
2023/04/29 09:49:48;;;;;;;10.38;4.38;;;26.30;99.90;;;;;;5034607;28;20127;-48
2023/04/29 09:52:16;;;;;;;8.40;3.53;;;26.30;99.90;;;;;;5034465;28;20111;-48
2023/04/29 09:54:43;;;;;;;7.80;3.80;;;26.30;99.90;;;;;;5034403;28;20029;-48
2023/04/29 09:57:10;;;;;;;7.90;3.47;;;26.30;99.90;;;;;;5034473;28;20030;-49
2023/04/29 09:59:40;;;;;;;6.03;3.88;;;26.30;99.90;;;;;;5034202;28;20024;-48
2023/04/29 10:02:16;;;;;;;7.00;3.95;;;26.30;99.90;;;;;;5034413;28;20497;-49
2023/04/29 10:04:45;;;;;;;5.40;3.50;;;26.30;99.90;;;;;;5034164;28;20100;-49
2023/04/29 10:07:17;;;;;;;9.65;3.42;;;26.30;99.90;;;;;;5034170;28;20387;-48
2023/04/29 10:09:46;;;;;;;6.45;3.38;;;26.40;99.90;;;;;;5034036;28;20026;-47
2023/04/29 10:12:16;;;;;;;7.43;3.95;;;26.40;99.90;;;;;;5034229;28;20030;-48
2023/04/29 10:14:48;;;;;;;5.63;3.47;;;26.40;99.90;;;;;;5034230;28;20023;-48
2023/04/29 10:17:26;;;;;;;5.35;3.40;;;26.40;99.90;;;;;;5034018;28;20048;-48
2023/04/29 10:20:05;;;;;;;4.95;3.45;;;26.40;99.90;;;;;;5033035;28;20033;-48
2023/04/29 10:22:46;;;;;;;9.18;3.78;;;26.40;99.90;;;;;;5034033;28;20420;-48
2023/04/29 10:25:17;;;;;;;8.07;3.97;;;26.50;99.90;;;;;;5033422;28;20072;-49
2023/04/29 10:27:43;;;;;;;6.35;3.85;;;26.50;99.90;;;;;;5032566;28;20056;-48
2023/04/29 10:30:20;;;;;;;7.72;3.72;;;26.50;99.90;;;;;;5033735;28;20076;-48
2023/04/29 10:32:48;;;;;;;8.27;3.67;;;26.50;99.90;;;;;;5033821;28;20013;-48
2023/04/29 10:35:15;;;;;;;;;;;26.50;99.90;;;;;;5034306;28;20561;-49
2023/04/29 10:37:45;;;;;;;7.07;3.95;;;26.50;99.90;;;;;;5032422;28;19905;-49
2023/04/29 10:40:39;;;;;;;6.70;3.53;;;26.60;99.90;;;;;;5033722;28;20536;-48
2023/04/29 10:43:05;;;;;;;7.35;3.65;;;26.60;99.90;;;;;;5033754;28;20053;-49
2023/04/29 10:45:35;;;;;;;5.20;4.03;;;26.60;99.90;;;;;;5033633;28;20059;-48
2023/04/29 10:48:05;;;;;;;8.05;3.58;;;26.60;99.90;;;;;;5033542;28;20036;-48
2023/04/29 10:50:32;;;;;;;5.55;3.13;;;26.60;99.90;;;;;;5033520;28;20494;-48
2023/04/29 10:53:01;;;;;;;8.40;3.60;;;26.60;99.90;;;;;;5033342;28;20053;-48
2023/04/29 10:55:27;;;;;;;4.97;3.35;;;26.60;99.90;;;;;;5033414;28;20029;-48
2023/04/29 10:57:55;;;;;;;11.45;4.82;;;26.60;99.90;;;;;;5033377;28;20075;-48
2023/04/29 11:00:25;;;;;;;5.07;3.05;;;26.70;99.90;;;;;;5033327;28;20041;-48
2023/04/29 11:02:53;;;;;;;6.80;3.72;;;26.70;99.90;;;;;;5033404;28;20025;-48
2023/04/29 11:05:35;;;;;;;4.13;2.75;;;26.70;99.90;;;;;;5032044;28;20483;-48
2023/04/29 11:08:22;;;;;;;6.35;3.40;;;26.70;99.90;;;;;;5031815;28;20041;-49
2023/04/29 11:11:00;;;;;;;;;;;26.70;99.90;;;;;;5032244;28;20022;-49
2023/04/29 11:13:30;;;;;;;4.25;2.38;;;26.80;99.90;;;;;;5031431;28;19909;-48
2023/04/29 11:16:06;;;;;;;4.32;2.80;;;26.80;99.90;;;;;;5031331;28;20395;-49
2023/04/29 11:18:36;;;;;;;5.93;2.42;;;26.80;99.90;;;;;;5032122;28;20432;-48
2023/04/29 11:21:07;;;;;;;6.78;2.80;;;26.80;99.90;;;;;;5031553;28;20501;-48
2023/04/29 11:23:35;;;;;;;8.13;2.50;;;26.80;99.90;;;;;;5032198;28;20030;-49
2023/04/29 11:26:01;;;;;;;5.88;2.53;;;26.80;99.90;;;;;;5031394;28;20029;-48
2023/04/29 11:28:29;;;;;;;7.20;2.35;;;26.80;99.90;;;;;;5031541;28;20091;-48
2023/04/29 11:30:55;;;;;;;;;;;26.80;99.90;;;;;;5030575;28;20021;-49
2023/04/29 11:33:21;;;;;;;6.82;2.70;;;26.80;99.90;;;;;;5030347;28;20402;-49
2023/04/29 11:35:47;;;;;;;4.47;2.33;;;26.80;99.90;;;;;;5011321;28;20034;-48
2023/04/29 11:38:13;;;;;;;8.75;2.30;;;26.80;99.90;;;;;;5012121;28;20026;-49
2023/04/29 11:40:48;;;;;;;4.53;1.98;;;26.80;99.90;;;;;;5030958;28;20022;-48
2023/04/29 11:43:17;;;;;;;5.20;2.50;;;26.80;99.90;;;;;;5032080;28;20022;-49
2023/04/29 11:45:46;;;;;;;3.60;2.63;;;26.90;99.90;;;;;;5031030;28;20470;-49
2023/04/29 11:48:23;;;;;;;6.18;2.70;;;26.90;99.90;;;;;;5031755;28;20064;-49
2023/04/29 11:50:52;;;;;;;4.88;2.38;;;26.90;99.90;;;;;;5029650;28;20395;-49
2023/04/29 11:53:24;;;;;;;6.03;2.67;;;26.90;99.90;;;;;;5030591;28;20072;-50
2023/04/29 11:55:51;;;;;;;4.03;2.58;;;26.90;99.90;;;;;;5028944;28;20029;-49
2023/04/29 11:58:19;;;;;;;3.30;1.77;;;26.90;99.90;;;;;;5031024;28;20037;-48
2023/04/29 12:00:46;;;;;;;4.43;2.20;;;26.90;99.90;;;;;;5029334;28;20052;-48
2023/04/29 12:03:20;;;;;;;6.18;2.15;;;26.90;99.90;;;;;;5030290;28;20026;-49
2023/04/29 12:05:48;;;;;;;4.45;2.40;;;27.00;99.90;;;;;;5032019;28;20025;-48
2023/04/29 12:08:14;;;;;;;4.68;1.92;;;27.00;99.90;;;;;;5032052;28;20094;-48
2023/04/29 12:10:40;;;;;;;4.40;2.20;;;27.00;99.90;;;;;;5032120;28;20025;-48
2023/04/29 12:13:06;;;;;;;4.88;2.45;;;27.00;99.90;;;;;;5032222;28;20034;-49
2023/04/29 12:15:32;;;;;;;4.13;2.35;;;27.00;99.90;;;;;;5032393;28;20399;-49
2023/04/29 12:18:00;;;;;;;7.03;2.55;;;27.00;99.90;;;;;;5032016;28;20041;-49
2023/04/29 12:20:27;;;;;;;3.33;2.22;;;27.00;99.90;;;;;;5032166;28;20076;-49
2023/04/29 12:22:54;;;;;;;;;;;27.10;99.90;;;;;;5031864;28;20029;-49
2023/04/29 12:25:26;;;;;;;3.15;1.95;;;27.10;99.90;;;;;;5032068;28;19936;-49
2023/04/29 12:27:59;;;;;;;5.63;2.67;;;27.10;99.90;;;;;;5031893;28;20042;-49
2023/04/29 12:30:24;;;;;;;5.18;2.90;;;27.10;99.90;;;;;;5032260;28;20025;-49
2023/04/29 12:32:51;;;;;;;2.85;2.38;;;27.10;99.90;;;;;;5031868;28;20033;-49
2023/04/29 12:35:17;;;;;;;4.75;3.05;;;27.10;99.90;;;;;;5031924;28;20029;-49
2023/04/29 12:37:47;;;;;;;4.68;2.55;;;27.10;99.90;;;;;;5031909;28;20022;-49
2023/04/29 12:40:15;;;;;;;5.93;3.00;;;27.10;99.90;;;;;;5031919;28;20434;-48
2023/04/29 12:42:41;;;;;;;6.93;3.03;;;27.10;99.90;;;;;;5031948;28;20021;-47
2023/04/29 12:45:07;;;;;;;7.57;3.03;;;27.20;99.90;;;;;;5031770;28;20416;-48
2023/04/29 12:47:36;;;;;;;6.82;3.38;;;27.20;99.90;;;;;;5031732;28;20043;-49
2023/04/29 12:50:01;;;;;;;5.45;2.80;;;27.20;99.90;;;;;;5035750;28;20383;-49
2023/04/29 12:52:27;;;;;;;4.57;2.85;;;27.20;99.90;;;;;;5036103;28;20029;-49